Time;durP1;ratioP1;P1;durP2;ratioP2;P2;SDS_P1;SDS_P2;PMS_P1;PMS_P2;Temp;Humidity;BMP_temperature;BMP_pressure;BME280_temperature;BME280_humidity;BME280_pressure;Samples;Min_cycle;Max_cycle;Signal;HPM_P1;HPM_P2
2022/08/10 00:01:28;;;;;;;4.47;1.65;;;24.90;58.50;;;;;;5001072;28;20044;-60
2022/08/10 00:03:54;;;;;;;1.75;1.45;;;24.70;58.50;;;;;;5000964;28;20068;-61
2022/08/10 00:06:20;;;;;;;3.22;1.35;;;24.90;58.70;;;;;;5003066;28;20134;-60
2022/08/10 00:08:45;;;;;;;3.08;1.33;;;24.80;58.70;;;;;;5004655;28;20092;-59
2022/08/10 00:11:11;;;;;;;3.22;1.25;;;24.70;58.80;;;;;;5004690;28;20469;-60
2022/08/10 00:13:36;;;;;;;3.58;1.38;;;24.70;58.90;;;;;;5004891;28;20405;-60
2022/08/10 00:16:02;;;;;;;2.47;1.27;;;24.70;59.10;;;;;;4983288;28;20022;-60
2022/08/10 00:18:28;;;;;;;4.78;1.23;;;24.70;59.10;;;;;;4998822;28;20022;-59
2022/08/10 00:20:53;;;;;;;3.08;1.55;;;24.60;59.10;;;;;;5003495;28;20049;-59
2022/08/10 00:23:19;;;;;;;2.67;1.17;;;24.60;59.10;;;;;;5004183;28;20033;-60
2022/08/10 00:25:45;;;;;;;12.57;2.38;;;24.60;59.00;;;;;;5003682;28;20045;-60
2022/08/10 00:28:10;;;;;;;20.08;3.55;;;24.60;59.10;;;;;;5002109;28;20450;-60
2022/08/10 00:30:36;;;;;;;12.45;2.25;;;24.50;59.10;;;;;;5002568;28;20034;-60
2022/08/10 00:33:01;;;;;;;3.35;1.58;;;24.50;59.20;;;;;;5000406;28;20421;-60
2022/08/10 00:35:27;;;;;;;15.68;2.88;;;24.50;59.30;;;;;;5001773;28;20120;-59
2022/08/10 00:37:52;;;;;;;7.40;1.85;;;24.40;59.20;;;;;;5004291;28;20083;-60
2022/08/10 00:40:18;;;;;;;10.95;2.15;;;24.40;59.40;;;;;;5002179;28;20072;-60
2022/08/10 00:42:43;;;;;;;11.23;2.20;;;24.40;59.50;;;;;;5001624;28;20132;-60
2022/08/10 00:45:09;;;;;;;8.77;1.85;;;24.40;59.70;;;;;;4972950;28;20065;-59
2022/08/10 00:47:35;;;;;;;11.85;1.90;;;24.40;59.70;;;;;;4988189;28;20670;-60
2022/08/10 00:50:00;;;;;;;6.07;2.13;;;24.40;59.90;;;;;;4990889;28;20034;-60
2022/08/10 00:52:26;;;;;;;9.95;1.88;;;24.40;60.00;;;;;;5007338;28;20034;-60
2022/08/10 00:54:51;;;;;;;8.55;2.28;;;24.30;59.90;;;;;;5007136;28;20041;-60
2022/08/10 00:57:17;;;;;;;3.78;1.92;;;24.30;59.80;;;;;;5005384;28;20127;-60
2022/08/10 00:59:42;;;;;;;7.53;1.80;;;24.30;59.80;;;;;;4990460;28;20087;-60
2022/08/10 01:02:08;;;;;;;11.13;2.17;;;24.30;59.90;;;;;;5003280;28;20056;-60
2022/08/10 01:04:33;;;;;;;8.60;1.75;;;24.30;60.00;;;;;;5007239;28;20057;-60
2022/08/10 01:07:31;;;;;;;7.63;1.55;;;24.20;60.00;;;;;;5004013;28;20029;-60
2022/08/10 01:10:15;;;;;;;4.35;1.42;;;24.20;60.20;;;;;;5003570;28;20046;-59
2022/08/10 01:12:55;;;;;;;9.48;1.90;;;24.20;60.20;;;;;;5005404;28;20049;-60
2022/08/10 01:15:31;;;;;;;7.38;1.70;;;24.20;60.30;;;;;;4989786;28;20169;-60
2022/08/10 01:17:59;;;;;;;4.78;1.30;;;24.10;60.30;;;;;;5005410;28;20065;-60
2022/08/10 01:20:47;;;;;;;6.60;1.63;;;24.10;60.30;;;;;;5002248;28;20500;-59
2022/08/10 01:23:39;;;;;;;6.40;1.33;;;24.10;60.50;;;;;;4989918;28;20543;-60
2022/08/10 01:26:25;;;;;;;7.43;1.55;;;24.10;60.70;;;;;;4990471;28;20033;-60
2022/08/10 01:29:12;;;;;;;5.50;1.70;;;24.10;60.80;;;;;;5001521;28;20022;-60
2022/08/10 01:31:40;;;;;;;5.75;1.33;;;24.00;60.90;;;;;;5005071;28;20030;-61
2022/08/10 01:34:33;;;;;;;3.97;1.60;;;24.00;60.90;;;;;;4989019;28;20061;-59
2022/08/10 01:37:05;;;;;;;3.05;1.30;;;24.00;60.90;;;;;;5003497;28;20096;-59
2022/08/10 01:39:39;;;;;;;3.05;1.38;;;24.00;61.00;;;;;;5021529;28;20066;-59
2022/08/10 01:42:05;;;;;;;8.43;1.48;;;23.90;61.00;;;;;;4973650;28;20125;-60
2022/08/10 01:44:42;;;;;;;11.45;1.58;;;23.90;61.10;;;;;;4987757;28;20108;-59
2022/08/10 01:50:12;;;;;;;5.55;1.70;;;23.90;61.30;;;;;;4991984;28;20029;-60
2022/08/10 01:52:39;;;;;;;4.70;1.30;;;23.80;61.20;;;;;;5004342;28;20040;-60
2022/08/10 01:55:05;;;;;;;2.22;1.15;;;23.80;61.40;;;;;;5005419;28;20130;-59
2022/08/10 01:57:31;;;;;;;7.65;2.00;;;23.80;62.20;;;;;;4989783;28;20105;-60
2022/08/10 01:59:56;;;;;;;3.97;1.40;;;23.70;61.40;;;;;;4987080;28;20128;-63
2022/08/10 02:02:22;;;;;;;10.68;1.58;;;23.70;61.40;;;;;;5003304;28;20432;-59
2022/08/10 02:04:48;;;;;;;2.85;1.50;;;23.70;61.60;;;;;;5004420;28;20044;-60
2022/08/10 02:07:17;;;;;;;1.85;1.40;;;23.70;61.60;;;;;;4987049;28;20038;-59
2022/08/10 02:09:46;;;;;;;4.57;1.35;;;23.70;61.70;;;;;;4991282;28;20044;-59
2022/08/10 02:12:14;;;;;;;3.38;1.30;;;23.60;61.80;;;;;;4987895;28;20033;-59
2022/08/10 02:14:43;;;;;;;3.72;1.63;;;23.60;61.80;;;;;;5001080;28;20026;-60
2022/08/10 02:17:10;;;;;;;5.07;1.30;;;23.60;61.90;;;;;;5000677;28;20038;-59
2022/08/10 02:19:38;;;;;;;4.32;1.38;;;23.60;61.90;;;;;;5002825;28;20038;-59
2022/08/10 02:22:03;;;;;;;2.40;1.10;;;23.50;61.90;;;;;;5006586;28;20045;-60
2022/08/10 02:24:29;;;;;;;1.60;1.30;;;23.50;62.00;;;;;;4989251;28;20365;-59
2022/08/10 02:26:54;;;;;;;3.70;1.38;;;23.50;62.10;;;;;;4988674;28;20042;-59
2022/08/10 02:29:20;;;;;;;2.22;1.35;;;23.50;62.20;;;;;;4986792;28;20364;-60
2022/08/10 02:31:45;;;;;;;1.85;1.10;;;23.40;62.10;;;;;;5002256;28;20466;-59
2022/08/10 02:34:12;;;;;;;1.40;1.10;;;23.40;62.20;;;;;;5004322;28;20555;-60
2022/08/10 02:36:42;;;;;;;2.17;1.35;;;23.40;62.30;;;;;;4989439;28;20070;-60
2022/08/10 02:39:08;;;;;;;4.85;1.27;;;23.30;62.40;;;;;;4988371;28;20117;-60
2022/08/10 02:41:36;;;;;;;2.50;1.27;;;23.30;62.60;;;;;;4988118;28;20973;-60
2022/08/10 02:44:04;;;;;;;1.75;1.17;;;23.30;62.50;;;;;;4999844;28;20477;-60
2022/08/10 02:46:39;;;;;;;2.05;1.15;;;23.30;62.60;;;;;;4987987;28;20025;-60
2022/08/10 02:49:05;;;;;;;;;;;23.20;62.70;;;;;;4985764;28;20014;-60
2022/08/10 02:51:48;;;;;;;;;;;23.20;62.80;;;;;;5005212;28;20215;-60
2022/08/10 02:54:17;;;;;;;2.15;1.30;;;23.20;62.90;;;;;;5004114;28;20308;-60
2022/08/10 02:56:47;;;;;;;2.90;1.42;;;23.20;62.90;;;;;;4987018;28;20092;-60
2022/08/10 02:59:24;;;;;;;3.78;1.58;;;23.20;63.10;;;;;;5002352;28;20026;-60
2022/08/10 03:01:51;;;;;;;2.35;1.30;;;23.10;63.00;;;;;;4990429;28;20026;-60
2022/08/10 03:04:22;;;;;;;2.17;1.17;;;23.20;63.10;;;;;;4985803;28;20026;-60
2022/08/10 03:06:53;;;;;;;3.05;1.17;;;23.10;63.30;;;;;;5001937;28;20024;-60
2022/08/10 03:09:19;;;;;;;3.95;1.38;;;23.10;63.40;;;;;;5001810;28;20116;-60
2022/08/10 03:11:45;;;;;;;2.63;1.20;;;23.00;63.40;;;;;;5002846;28;20485;-60
2022/08/10 03:14:10;;;;;;;2.78;1.27;;;23.00;63.50;;;;;;4987454;28;20033;-60
2022/08/10 03:16:36;;;;;;;4.18;1.80;;;23.00;63.50;;;;;;4986658;28;20030;-60
2022/08/10 03:19:03;;;;;;;2.20;1.48;;;23.00;63.60;;;;;;5000342;28;20080;-60
2022/08/10 03:21:29;;;;;;;1.48;1.23;;;22.90;63.90;;;;;;5003005;28;20052;-60
2022/08/10 03:23:56;;;;;;;3.35;1.63;;;22.90;64.10;;;;;;4987562;28;20029;-60
2022/08/10 03:26:21;;;;;;;2.08;1.15;;;22.80;64.10;;;;;;5003532;28;20056;-60
2022/08/10 03:28:47;;;;;;;2.75;1.23;;;22.80;64.30;;;;;;5003358;28;20064;-60
2022/08/10 03:31:12;;;;;;;1.80;1.40;;;22.80;64.30;;;;;;4986450;28;20030;-60
2022/08/10 03:33:41;;;;;;;5.07;1.33;;;22.80;64.40;;;;;;4985919;28;20018;-60
2022/08/10 03:36:07;;;;;;;2.03;1.20;;;22.70;64.50;;;;;;4987227;28;20026;-60
2022/08/10 03:38:33;;;;;;;4.03;1.30;;;22.70;64.60;;;;;;4985854;28;20033;-60
2022/08/10 03:41:03;;;;;;;2.22;1.23;;;22.60;64.60;;;;;;5005057;28;20057;-60
2022/08/10 03:43:29;;;;;;;5.35;1.45;;;22.60;64.80;;;;;;5004717;28;20076;-60
2022/08/10 03:45:57;;;;;;;2.10;1.30;;;22.60;64.90;;;;;;4985510;28;20042;-60
2022/08/10 03:48:24;;;;;;;2.67;1.50;;;22.60;64.90;;;;;;4983326;28;20074;-60
2022/08/10 03:50:50;;;;;;;2.35;1.42;;;22.60;65.10;;;;;;5003495;28;20045;-60
2022/08/10 03:53:15;;;;;;;1.98;1.48;;;22.60;65.20;;;;;;4989013;28;20092;-60
2022/08/10 03:55:41;;;;;;;2.60;1.35;;;22.50;65.20;;;;;;5004304;28;20449;-60
2022/08/10 03:58:06;;;;;;;6.65;1.30;;;22.50;65.30;;;;;;5003673;28;20037;-64
2022/08/10 04:00:33;;;;;;;1.63;1.50;;;22.50;65.40;;;;;;5001012;28;20025;-60
2022/08/10 04:03:03;;;;;;;2.58;1.27;;;22.40;65.50;;;;;;4984803;28;20105;-60
2022/08/10 04:05:32;;;;;;;2.40;1.45;;;22.40;65.60;;;;;;5003280;28;20034;-59
2022/08/10 04:07:58;;;;;;;1.63;1.30;;;22.40;65.70;;;;;;4987350;28;20045;-60
2022/08/10 04:10:24;;;;;;;1.55;1.30;;;22.40;65.90;;;;;;5002873;28;20132;-60
2022/08/10 04:12:49;;;;;;;2.53;1.42;;;22.30;66.60;;;;;;5002844;28;20108;-60
2022/08/10 04:15:15;;;;;;;2.50;1.60;;;22.30;65.90;;;;;;5003942;28;20409;-60
2022/08/10 04:17:40;;;;;;;3.55;1.23;;;22.30;66.00;;;;;;4985924;28;20519;-60
2022/08/10 04:20:09;;;;;;;5.88;1.73;;;22.30;66.00;;;;;;5003485;28;20084;-60
2022/08/10 04:22:35;;;;;;;3.80;1.70;;;22.30;66.00;;;;;;4987557;28;20176;-60
2022/08/10 04:25:01;;;;;;;1.45;1.20;;;22.30;66.10;;;;;;4986580;28;20402;-60
2022/08/10 04:27:27;;;;;;;1.73;1.38;;;22.30;66.20;;;;;;4986119;28;20058;-60
2022/08/10 04:29:54;;;;;;;3.53;1.52;;;22.20;66.40;;;;;;4986404;28;20034;-60
2022/08/10 04:32:19;;;;;;;2.13;1.73;;;22.20;66.40;;;;;;4986229;28;20025;-59
2022/08/10 04:34:45;;;;;;;1.70;1.38;;;22.20;66.40;;;;;;4984672;28;20397;-60
2022/08/10 04:37:11;;;;;;;3.55;1.48;;;22.10;66.50;;;;;;4985815;28;20477;-60
2022/08/10 04:39:37;;;;;;;2.45;1.40;;;22.10;66.50;;;;;;4985808;28;20075;-60
2022/08/10 04:42:03;;;;;;;2.15;1.40;;;22.10;66.50;;;;;;4985264;28;20042;-60
2022/08/10 04:44:28;;;;;;;4.07;1.38;;;22.10;66.50;;;;;;5017177;28;20045;-60
2022/08/10 04:46:54;;;;;;;2.13;1.25;;;22.10;66.50;;;;;;4987447;28;20458;-59
2022/08/10 04:49:19;;;;;;;1.95;1.48;;;22.00;66.60;;;;;;5004609;28;20053;-59
2022/08/10 04:51:45;;;;;;;3.28;1.50;;;22.00;66.70;;;;;;5004983;28;20030;-60
2022/08/10 04:54:10;;;;;;;4.93;1.63;;;22.00;66.70;;;;;;5003505;28;20042;-60
2022/08/10 04:56:37;;;;;;;2.75;1.40;;;22.00;66.80;;;;;;5001606;28;20504;-67
2022/08/10 04:59:04;;;;;;;2.95;1.88;;;22.00;66.80;;;;;;5003348;28;20409;-60
2022/08/10 05:01:31;;;;;;;3.47;1.50;;;22.00;66.80;;;;;;5002335;28;20018;-60
2022/08/10 05:03:56;;;;;;;2.80;1.40;;;22.00;66.80;;;;;;4999397;28;20022;-61
2022/08/10 05:06:22;;;;;;;2.08;1.30;;;21.90;66.80;;;;;;5002082;28;20030;-60
2022/08/10 05:08:47;;;;;;;3.67;1.50;;;21.90;66.80;;;;;;5003580;28;20030;-60
2022/08/10 05:11:13;;;;;;;1.63;1.40;;;21.90;66.80;;;;;;5004316;28;20112;-60
2022/08/10 05:13:38;;;;;;;3.17;1.55;;;21.90;66.70;;;;;;4985055;28;20064;-60
2022/08/10 05:16:04;;;;;;;1.80;1.40;;;21.90;66.70;;;;;;5000998;28;20018;-60
2022/08/10 05:18:29;;;;;;;2.85;1.55;;;21.90;66.70;;;;;;4981493;28;20373;-60
2022/08/10 05:20:55;;;;;;;1.77;1.30;;;21.90;66.70;;;;;;5003647;28;20042;-60
2022/08/10 05:23:20;;;;;;;2.10;1.38;;;21.90;66.80;;;;;;5003091;28;20054;-60
2022/08/10 05:25:46;;;;;;;3.17;1.70;;;21.90;66.70;;;;;;5003498;28;20064;-60
2022/08/10 05:28:11;;;;;;;2.08;1.30;;;21.90;66.70;;;;;;4984472;28;20040;-60
2022/08/10 05:30:37;;;;;;;2.50;1.40;;;21.90;66.70;;;;;;5000203;28;20427;-60
2022/08/10 05:33:02;;;;;;;3.22;1.52;;;21.90;66.70;;;;;;5002032;28;20464;-60
2022/08/10 05:35:28;;;;;;;3.78;1.70;;;21.90;66.80;;;;;;5006145;28;20454;-61
2022/08/10 05:37:55;;;;;;;2.88;1.63;;;21.80;66.70;;;;;;5007355;28;20060;-60
2022/08/10 05:40:22;;;;;;;2.60;1.45;;;21.80;66.80;;;;;;4990461;28;20097;-60
2022/08/10 05:42:47;;;;;;;2.75;1.58;;;21.80;66.80;;;;;;5003415;28;20521;-60
2022/08/10 05:45:23;;;;;;;2.50;1.50;;;21.80;66.80;;;;;;5007303;28;20053;-60
2022/08/10 05:47:48;;;;;;;4.80;1.50;;;21.80;66.80;;;;;;5003528;28;20592;-60
2022/08/10 05:50:15;;;;;;;2.10;1.35;;;21.80;66.90;;;;;;5017882;28;20041;-60
2022/08/10 05:52:41;;;;;;;1.98;1.50;;;21.70;66.80;;;;;;5000564;28;20237;-60
2022/08/10 05:55:07;;;;;;;5.55;1.60;;;21.70;66.90;;;;;;5005527;28;20320;-61
2022/08/10 05:57:35;;;;;;;3.65;1.58;;;21.80;67.00;;;;;;4988013;28;20034;-60
2022/08/10 06:00:04;;;;;;;3.83;1.48;;;21.70;67.00;;;;;;5000758;28;20022;-60
2022/08/10 06:02:31;;;;;;;2.60;1.40;;;21.70;67.10;;;;;;4995236;28;20524;-61
2022/08/10 06:04:59;;;;;;;4.20;1.83;;;21.70;67.10;;;;;;4967293;28;20139;-61
2022/08/10 06:07:26;;;;;;;2.65;1.55;;;21.70;67.30;;;;;;4993547;28;20155;-60
2022/08/10 06:09:51;;;;;;;5.43;1.98;;;21.60;67.50;;;;;;5013952;28;20054;-61
2022/08/10 06:12:17;;;;;;;3.40;1.73;;;21.50;67.90;;;;;;4996212;28;20129;-60
2022/08/10 06:15:00;;;;;;;3.10;1.55;;;21.50;68.10;;;;;;4994958;28;20310;-60
2022/08/10 06:17:29;;;;;;;4.28;1.75;;;21.50;68.40;;;;;;4989344;28;20084;-60
2022/08/10 06:19:58;;;;;;;6.03;2.00;;;21.40;69.10;;;;;;5004809;28;20032;-60
2022/08/10 06:22:26;;;;;;;4.68;1.88;;;21.40;68.90;;;;;;4995550;28;20403;-61
2022/08/10 06:24:53;;;;;;;7.65;2.25;;;21.40;69.20;;;;;;4997809;28;20022;-60
2022/08/10 06:27:18;;;;;;;4.70;2.17;;;21.30;69.50;;;;;;4981375;28;20029;-60
2022/08/10 06:29:44;;;;;;;12.00;2.28;;;21.40;69.80;;;;;;4995295;28;20425;-61
2022/08/10 06:32:10;;;;;;;5.38;2.20;;;21.30;69.90;;;;;;4997944;28;20441;-60
2022/08/10 06:34:38;;;;;;;52.97;6.20;;;21.20;70.00;;;;;;4978228;28;20642;-60
2022/08/10 06:37:04;;;;;;;31.90;5.35;;;21.20;70.10;;;;;;4997111;28;20061;-60
2022/08/10 06:39:30;;;;;;;14.98;2.92;;;21.20;70.30;;;;;;4997698;28;20505;-61
2022/08/10 06:42:06;;;;;;;16.67;3.15;;;21.20;70.50;;;;;;4996774;28;20057;-60
2022/08/10 06:44:35;;;;;;;16.30;3.00;;;21.20;70.40;;;;;;4998598;28;20037;-60
2022/08/10 06:47:01;;;;;;;24.90;3.70;;;21.20;70.50;;;;;;4968075;28;20758;-60
2022/08/10 06:49:26;;;;;;;15.43;4.53;;;21.20;70.60;;;;;;4977118;28;20064;-61
2022/08/10 06:51:55;;;;;;;21.77;5.35;;;21.20;70.60;;;;;;4997526;28;20053;-61
2022/08/10 06:54:22;;;;;;;30.23;5.43;;;21.20;70.70;;;;;;4998027;28;20030;-60
2022/08/10 06:56:48;;;;;;;24.52;4.25;;;21.20;70.80;;;;;;5013505;28;20046;-60
2022/08/10 06:59:31;;;;;;;42.28;5.88;;;21.20;70.90;;;;;;4995058;28;20041;-60
2022/08/10 07:02:04;;;;;;;18.95;3.47;;;21.20;71.00;;;;;;4996140;28;20026;-60
2022/08/10 07:04:39;;;;;;;15.45;3.03;;;21.20;71.00;;;;;;4981257;28;20257;-60
2022/08/10 07:07:05;;;;;;;25.88;3.70;;;21.20;71.00;;;;;;5001421;28;20240;-60
2022/08/10 07:09:32;;;;;;;11.80;3.10;;;21.30;71.00;;;;;;4984039;28;20413;-60
2022/08/10 07:11:57;;;;;;;15.18;3.10;;;21.30;71.00;;;;;;4982786;28;20045;-61
2022/08/10 07:14:23;;;;;;;16.73;3.10;;;21.30;71.10;;;;;;4982484;28;20041;-67
2022/08/10 07:16:49;;;;;;;11.95;2.90;;;21.20;71.00;;;;;;5014089;28;20484;-61
2022/08/10 07:19:15;;;;;;;12.98;3.13;;;21.30;71.10;;;;;;5013226;28;20385;-60
2022/08/10 07:21:42;;;;;;;19.38;2.95;;;21.30;71.20;;;;;;4997922;28;20018;-61
2022/08/10 07:24:11;;;;;;;11.40;2.85;;;21.30;71.30;;;;;;4981859;28;20053;-60
2022/08/10 07:26:38;;;;;;;10.95;2.47;;;21.20;71.10;;;;;;4982495;28;20441;-61
2022/08/10 07:29:04;;;;;;;11.48;2.20;;;21.30;71.20;;;;;;4994687;28;20026;-61
2022/08/10 07:31:30;;;;;;;11.73;3.00;;;21.30;71.10;;;;;;4998533;28;20037;-60
2022/08/10 07:33:56;;;;;;;20.50;3.00;;;21.30;71.20;;;;;;4993701;28;20026;-60
2022/08/10 07:36:22;;;;;;;24.05;3.67;;;21.30;71.10;;;;;;4985231;28;20461;-62
2022/08/10 07:38:49;;;;;;;14.13;2.88;;;21.30;71.10;;;;;;4999076;28;20036;-61
2022/08/10 07:41:15;;;;;;;14.15;3.15;;;21.30;71.20;;;;;;4979949;28;20045;-61
2022/08/10 07:43:40;;;;;;;17.08;3.22;;;21.30;71.30;;;;;;4980559;28;20092;-61
2022/08/10 07:46:10;;;;;;;24.55;3.45;;;21.30;71.30;;;;;;4965140;28;20026;-61
2022/08/10 07:48:42;;;;;;;12.75;2.95;;;21.30;71.10;;;;;;4997117;28;20033;-61
2022/08/10 07:51:08;;;;;;;18.08;2.63;;;21.30;71.10;;;;;;4966190;28;20066;-60
2022/08/10 07:53:37;;;;;;;12.70;2.78;;;21.40;71.30;;;;;;4979767;28;20243;-60
2022/08/10 07:56:03;;;;;;;15.13;3.00;;;21.40;71.70;;;;;;5013453;28;20029;-61
2022/08/10 07:58:32;;;;;;;11.35;2.33;;;21.40;71.20;;;;;;5014405;28;20022;-62
2022/08/10 08:00:58;;;;;;;10.50;2.90;;;21.40;71.30;;;;;;4983946;28;20501;-60
2022/08/10 08:03:24;;;;;;;18.92;3.60;;;21.40;71.30;;;;;;4994331;28;20034;-61
2022/08/10 08:05:51;;;;;;;10.57;2.65;;;21.40;71.50;;;;;;4975166;28;20109;-60
2022/08/10 08:08:16;;;;;;;19.23;3.65;;;21.40;71.40;;;;;;4981061;28;20034;-60
2022/08/10 08:10:41;;;;;;;12.95;2.88;;;21.40;71.30;;;;;;5015810;28;20029;-60
2022/08/10 08:13:07;;;;;;;10.77;2.70;;;21.50;71.40;;;;;;4980072;28;20056;-60
2022/08/10 08:15:33;;;;;;;13.27;2.65;;;21.50;71.40;;;;;;4999711;28;20065;-60
2022/08/10 08:17:59;;;;;;;23.23;4.07;;;21.50;71.40;;;;;;5011414;28;20028;-60
2022/08/10 08:20:25;;;;;;;16.25;3.38;;;21.50;71.60;;;;;;5012147;28;20030;-61
2022/08/10 08:22:50;;;;;;;13.73;3.08;;;21.50;71.40;;;;;;4999073;28;20560;-61
2022/08/10 08:25:20;;;;;;;17.30;2.85;;;21.60;71.40;;;;;;4977885;28;20108;-60
2022/08/10 08:27:51;;;;;;;17.02;2.85;;;21.60;71.10;;;;;;4965715;28;20025;-60
2022/08/10 08:30:16;;;;;;;13.82;2.80;;;21.60;71.30;;;;;;4996098;28;20132;-60
2022/08/10 08:32:42;;;;;;;20.55;3.03;;;21.60;71.50;;;;;;4999234;28;20067;-62
2022/08/10 08:35:09;;;;;;;15.30;2.88;;;21.70;71.60;;;;;;4998524;28;20026;-61
2022/08/10 08:37:36;;;;;;;8.98;2.92;;;21.70;71.20;;;;;;4983661;28;20026;-60
2022/08/10 08:40:04;;;;;;;12.23;2.80;;;21.70;70.90;;;;;;5013973;28;20080;-61
2022/08/10 08:42:51;;;;;;;17.38;2.88;;;21.70;70.50;;;;;;5016685;28;20092;-60
2022/08/10 08:45:47;;;;;;;9.82;2.58;;;21.80;70.40;;;;;;4998187;28;20040;-60
2022/08/10 08:48:18;;;;;;;14.05;3.15;;;21.80;70.20;;;;;;4983671;28;20022;-60
2022/08/10 08:51:01;;;;;;;12.77;3.05;;;21.90;70.10;;;;;;4995790;28;20328;-60
2022/08/10 08:53:57;;;;;;;15.02;2.92;;;21.90;70.00;;;;;;4998698;28;20504;-62
2022/08/10 08:56:33;;;;;;;14.63;2.65;;;21.90;70.10;;;;;;4997903;28;20036;-60
2022/08/10 08:59:23;;;;;;;20.77;3.28;;;22.00;70.00;;;;;;4988575;28;20096;-60
2022/08/10 09:02:07;;;;;;;8.93;2.78;;;22.00;69.80;;;;;;4991717;28;20117;-61
2022/08/10 09:04:56;;;;;;;12.88;2.70;;;22.00;69.70;;;;;;4991460;28;20557;-60
2022/08/10 09:07:45;;;;;;;34.95;5.50;;;22.10;69.80;;;;;;4980904;28;20069;-61
2022/08/10 09:10:34;;;;;;;23.92;4.00;;;22.10;69.80;;;;;;4981229;28;20854;-61
2022/08/10 09:13:25;;;;;;;35.97;5.10;;;22.20;69.70;;;;;;4998934;28;20038;-60
2022/08/10 09:15:59;;;;;;;32.20;5.32;;;22.20;69.90;;;;;;5009951;28;20160;-60
2022/08/10 09:18:47;;;;;;;26.55;4.68;;;22.20;69.80;;;;;;4996998;28;20568;-61
2022/08/10 09:21:22;;;;;;;38.83;5.25;;;22.20;69.50;;;;;;4998315;28;20115;-60
2022/08/10 09:23:52;;;;;;;22.20;4.45;;;22.30;69.50;;;;;;5016684;28;20048;-61
2022/08/10 09:26:27;;;;;;;25.35;4.38;;;22.30;69.30;;;;;;4995997;28;20095;-60
2022/08/10 09:28:55;;;;;;;30.70;4.97;;;22.30;69.10;;;;;;4996057;28;20423;-61
2022/08/10 09:31:22;;;;;;;60.47;8.32;;;22.40;69.10;;;;;;5014201;28;20071;-60
2022/08/10 09:34:09;;;;;;;34.47;5.82;;;22.40;69.00;;;;;;4997808;28;20167;-61
2022/08/10 09:37:00;;;;;;;27.67;5.25;;;22.50;69.10;;;;;;4998158;28;20038;-60
2022/08/10 09:39:47;;;;;;;32.75;5.72;;;22.50;68.70;;;;;;5002636;28;20050;-61
2022/08/10 09:42:36;;;;;;;30.92;4.60;;;22.60;68.40;;;;;;4995341;28;20038;-60
2022/08/10 09:45:19;;;;;;;29.55;4.60;;;22.60;68.20;;;;;;4996509;28;20083;-61
2022/08/10 09:48:01;;;;;;;18.25;3.90;;;22.60;67.80;;;;;;5009407;28;20053;-61
2022/08/10 09:51:02;;;;;;;22.50;4.13;;;22.70;67.20;;;;;;4997973;28;20052;-59
2022/08/10 09:53:44;;;;;;;24.40;4.32;;;22.80;66.90;;;;;;4980372;28;20053;-60
2022/08/10 09:56:35;;;;;;;16.67;3.50;;;22.90;66.80;;;;;;4980981;28;20036;-59
2022/08/10 09:59:11;;;;;;;55.00;6.50;;;22.90;66.60;;;;;;4975820;28;20396;-60
2022/08/10 10:02:27;;;;;;;39.15;5.72;;;22.90;66.60;;;;;;4999048;28;20215;-60
2022/08/10 10:05:07;;;;;;;35.50;5.57;;;23.00;66.40;;;;;;4976129;28;20110;-60
2022/08/10 10:07:33;;;;;;;25.85;5.03;;;23.00;66.20;;;;;;4967835;28;21644;-59
2022/08/10 10:10:11;;;;;;;29.55;4.43;;;23.10;65.80;;;;;;4980538;28;20145;-60
2022/08/10 10:12:57;;;;;;;31.42;4.32;;;23.10;65.80;;;;;;4993313;28;20030;-60
2022/08/10 10:15:54;;;;;;;40.40;5.30;;;23.10;65.70;;;;;;4996096;28;20030;-59
2022/08/10 10:18:40;;;;;;;25.48;4.43;;;23.20;65.60;;;;;;4988200;28;20754;-60
2022/08/10 10:21:37;;;;;;;18.67;3.65;;;23.20;65.50;;;;;;5014544;28;20105;-60
2022/08/10 10:24:23;;;;;;;43.58;4.60;;;23.30;65.40;;;;;;4999878;28;20109;-59
2022/08/10 10:26:51;;;;;;;26.42;4.63;;;23.40;65.30;;;;;;5004445;28;20057;-59
2022/08/10 10:29:38;;;;;;;32.58;4.68;;;23.40;65.20;;;;;;5001325;28;20063;-61
2022/08/10 10:32:10;;;;;;;15.48;3.20;;;23.50;65.20;;;;;;4998260;28;20555;-61
2022/08/10 10:34:47;;;;;;;8.85;3.20;;;23.60;65.00;;;;;;4994449;28;20038;-59
2022/08/10 10:37:13;;;;;;;14.82;3.20;;;23.70;64.80;;;;;;4989341;28;20026;-59
2022/08/10 10:39:41;;;;;;;43.35;5.38;;;23.80;64.30;;;;;;4980364;28;20036;-59
2022/08/10 10:42:36;;;;;;;10.15;2.67;;;23.80;64.40;;;;;;4993364;28;20472;-61
2022/08/10 10:45:27;;;;;;;26.60;5.68;;;23.90;64.30;;;;;;4997332;28;20022;-59
2022/08/10 10:47:53;;;;;;;28.67;3.90;;;24.00;64.40;;;;;;4993609;28;20121;-62
2022/08/10 10:50:24;;;;;;;29.48;4.65;;;24.00;64.30;;;;;;4995822;28;20065;-59
2022/08/10 10:52:57;;;;;;;16.20;4.00;;;24.00;64.40;;;;;;4994430;28;20484;-59
2022/08/10 10:55:44;;;;;;;20.23;4.60;;;24.10;64.20;;;;;;4982837;28;20026;-59
2022/08/10 10:58:29;;;;;;;18.13;3.55;;;24.10;64.00;;;;;;4987802;28;20038;-61
2022/08/10 11:01:08;;;;;;;25.88;4.00;;;24.20;63.70;;;;;;4991704;28;20022;-61
2022/08/10 11:04:01;;;;;;;24.48;4.43;;;24.30;63.40;;;;;;4971784;28;20033;-60
2022/08/10 11:06:44;;;;;;;28.65;4.75;;;24.30;63.30;;;;;;4991025;28;20301;-59
2022/08/10 11:09:15;;;;;;;43.30;5.30;;;24.40;63.20;;;;;;5002894;28;20272;-61
2022/08/10 11:11:40;;;;;;;46.03;5.10;;;24.50;63.20;;;;;;4995118;28;21447;-61
2022/08/10 11:14:25;;;;;;;21.13;3.55;;;24.50;62.90;;;;;;4973399;28;20044;-61
2022/08/10 11:17:10;;;;;;;19.23;3.97;;;24.60;62.70;;;;;;4990384;28;20061;-62
2022/08/10 11:19:44;;;;;;;24.27;4.10;;;24.60;62.60;;;;;;4999923;28;20025;-61
2022/08/10 11:22:26;;;;;;;26.40;3.90;;;24.70;62.30;;;;;;4984012;28;20037;-62
2022/08/10 11:25:00;;;;;;;34.92;4.40;;;24.80;62.30;;;;;;4984856;28;20081;-58
2022/08/10 11:27:41;;;;;;;48.42;5.75;;;24.90;62.10;;;;;;4987106;28;20034;-61
2022/08/10 11:30:09;;;;;;;27.08;4.28;;;25.00;61.90;;;;;;4969696;28;20033;-59
2022/08/10 11:32:53;;;;;;;19.92;3.17;;;25.10;61.60;;;;;;4951677;28;20189;-59
2022/08/10 11:35:38;;;;;;;16.20;2.92;;;25.10;60.80;;;;;;4990265;28;20500;-59
2022/08/10 11:38:22;;;;;;;20.00;3.60;;;25.30;60.50;;;;;;4982278;28;20611;-59
2022/08/10 11:41:08;;;;;;;23.70;3.58;;;25.30;60.20;;;;;;4984217;28;20549;-59
2022/08/10 11:43:36;;;;;;;14.02;3.22;;;25.40;60.10;;;;;;4987732;28;20045;-59
2022/08/10 11:46:08;;;;;;;18.45;3.00;;;25.50;59.90;;;;;;4982099;28;20037;-59
2022/08/10 11:48:41;;;;;;;17.45;3.08;;;25.60;59.70;;;;;;4990052;28;20117;-59
2022/08/10 11:51:10;;;;;;;24.10;3.42;;;25.70;59.40;;;;;;5004267;28;20139;-59
2022/08/10 11:53:47;;;;;;;17.00;3.33;;;25.80;59.30;;;;;;4955468;28;20037;-59
2022/08/10 11:56:35;;;;;;;12.65;2.85;;;25.80;58.80;;;;;;4991703;28;20528;-59
2022/08/10 12:01:44;;;;;;;37.35;4.88;;;26.00;58.10;;;;;;4993965;28;21668;-59
2022/08/10 12:04:10;;;;;;;15.18;2.70;;;26.00;57.90;;;;;;5006617;28;20113;-60
2022/08/10 12:06:36;;;;;;;24.88;3.63;;;26.10;57.60;;;;;;4977373;28;20114;-59
2022/08/10 12:09:03;;;;;;;10.88;2.92;;;26.10;57.60;;;;;;5008018;28;20048;-59
2022/08/10 12:11:29;;;;;;;12.90;2.70;;;26.20;57.50;;;;;;4976829;28;20489;-59
2022/08/10 12:14:04;;;;;;;12.07;2.80;;;26.20;57.20;;;;;;4977847;28;20072;-59
2022/08/10 12:16:30;;;;;;;7.68;2.22;;;26.30;57.30;;;;;;4991009;28;20073;-59
2022/08/10 12:19:13;;;;;;;5.32;1.80;;;26.30;56.90;;;;;;5005858;28;20073;-59
2022/08/10 12:21:45;;;;;;;12.80;1.90;;;26.40;56.70;;;;;;4981967;28;20172;-59
2022/08/10 12:24:34;;;;;;;11.43;2.58;;;26.40;56.40;;;;;;4994483;28;20513;-59
2022/08/10 12:27:19;;;;;;;17.30;2.50;;;26.50;56.30;;;;;;4985219;28;20072;-59
2022/08/10 12:30:03;;;;;;;10.57;2.42;;;26.60;56.10;;;;;;4998090;28;20481;-59
2022/08/10 12:32:40;;;;;;;13.82;2.35;;;26.60;56.00;;;;;;4995622;28;20110;-59
2022/08/10 12:35:21;;;;;;;12.77;2.58;;;26.70;56.00;;;;;;4998164;28;20030;-59
2022/08/10 12:38:01;;;;;;;22.70;2.72;;;26.80;55.70;;;;;;5009798;28;20337;-59
2022/08/10 12:40:28;;;;;;;5.28;1.88;;;26.90;55.80;;;;;;4987423;28;20070;-59
2022/08/10 12:43:10;;;;;;;11.07;2.47;;;26.90;55.60;;;;;;4975051;28;20176;-59
2022/08/10 12:45:51;;;;;;;12.93;2.80;;;26.90;55.80;;;;;;4991130;28;20046;-60
2022/08/10 12:48:29;;;;;;;6.45;1.85;;;26.90;55.60;;;;;;4991623;28;20088;-60
2022/08/10 12:51:02;;;;;;;8.27;2.10;;;27.00;55.40;;;;;;4995082;28;20064;-60
2022/08/10 12:53:55;;;;;;;14.70;2.28;;;27.00;55.00;;;;;;4992670;28;20034;-59
2022/08/10 12:56:33;;;;;;;2.22;1.35;;;27.10;55.00;;;;;;4995035;28;20497;-59
2022/08/10 12:58:58;;;;;;;7.90;1.98;;;27.20;54.80;;;;;;4982190;28;20053;-60
2022/08/10 13:01:29;;;;;;;4.45;1.40;;;27.20;54.70;;;;;;4997798;28;20125;-60
2022/08/10 13:03:58;;;;;;;4.45;1.58;;;27.30;54.90;;;;;;4978366;28;20017;-60
2022/08/10 13:06:23;;;;;;;8.02;1.77;;;27.30;54.90;;;;;;4992594;28;20021;-60
2022/08/10 13:11:33;;;;;;;4.07;1.55;;;27.40;54.50;;;;;;4992957;28;20164;-60
2022/08/10 13:14:02;;;;;;;6.90;1.80;;;27.50;54.40;;;;;;4990823;28;20421;-60